createdAt,value
2022-08-17T06:13:31.728Z,100714.88
2022-08-17T06:19:04.515Z,100711.94
2022-08-17T06:24:45.322Z,100722.03
2022-08-17T06:30:02.125Z,100715.50
2022-08-17T06:35:07.529Z,100715.06
2022-08-17T06:40:31.141Z,100714.66
2022-08-17T06:45:41.815Z,100713.19
2022-08-17T06:50:49.203Z,100722.09
2022-08-17T06:56:03.403Z,100726.66
2022-08-17T07:01:19.682Z,100720.72
2022-08-17T07:06:37.968Z,100733.22
2022-08-17T07:11:51.221Z,100726.38
2022-08-17T07:16:56.604Z,100727.31
2022-08-17T07:22:14.237Z,100729.03
2022-08-17T07:27:32.365Z,100725.31
2022-08-17T07:32:45.404Z,100728.44
2022-08-17T07:38:24.762Z,100733.19
2022-08-17T07:43:29.561Z,100732.06
2022-08-17T07:48:37.466Z,100737.59
2022-08-17T07:53:39.844Z,100738.31
2022-08-17T07:58:42.250Z,100723.13
2022-08-17T08:03:46.347Z,100729.44
2022-08-17T08:08:56.487Z,100738.06
2022-08-17T08:14:28.681Z,100745.41
2022-08-17T08:19:32.422Z,100740.34
2022-08-17T08:24:51.419Z,100748.88
2022-08-17T08:30:14.364Z,100769.97
2022-08-17T08:35:33.753Z,100790.00
2022-08-17T08:40:36.339Z,100792.25
2022-08-17T08:45:44.536Z,100786.91
2022-08-17T08:50:57.364Z,100765.28
2022-08-17T08:56:37.377Z,100745.09
2022-08-17T09:01:48.718Z,100736.31
2022-08-17T09:07:43.021Z,100730.28
2022-08-17T09:13:09.341Z,100722.97
2022-08-17T09:19:00.581Z,100715.53
2022-08-17T09:24:12.668Z,100724.22
2022-08-17T09:29:17.487Z,100727.53
2022-08-17T09:34:32.061Z,100732.25
2022-08-17T09:40:17.630Z,100715.94
2022-08-17T09:45:40.898Z,100720.69
2022-08-17T09:51:03.507Z,100723.38
2022-08-17T09:57:28.629Z,100715.69
2022-08-17T10:02:54.377Z,100721.72
2022-08-17T10:08:17.990Z,100731.69
2022-08-17T10:13:53.084Z,100717.38
2022-08-17T10:19:23.261Z,100712.25
2022-08-17T10:25:21.539Z,100716.53
2022-08-17T10:30:18.604Z,100697.47
2022-08-17T10:35:31.231Z,100697.09
2022-08-17T10:41:12.719Z,100699.16
2022-08-17T10:47:03.395Z,100701.22
2022-08-17T10:52:20.805Z,100708.78
2022-08-17T10:57:44.901Z,100698.31
2022-08-17T11:02:51.235Z,100702.03
2022-08-17T11:08:11.828Z,100697.38
2022-08-17T11:13:53.447Z,100704.66
2022-08-17T11:19:49.295Z,100690.38
2022-08-17T11:24:54.004Z,100702.03
2022-08-17T11:30:04.071Z,100692.88
2022-08-17T11:35:21.688Z,100681.25
2022-08-17T11:40:51.455Z,100675.38
2022-08-17T11:46:01.179Z,100680.09
2022-08-17T11:51:34.753Z,100673.84
2022-08-17T11:56:41.002Z,100670.53
2022-08-17T12:01:56.671Z,100673.31
2022-08-17T12:07:17.527Z,100665.41
2022-08-17T12:12:29.649Z,100665.75
2022-08-17T12:17:40.418Z,100663.16
2022-08-17T12:22:57.658Z,100660.19
2022-08-17T12:28:06.647Z,100652.16
2022-08-17T12:33:13.660Z,100659.91
2022-08-17T12:38:33.169Z,100648.06
2022-08-17T12:43:35.873Z,100642.47
2022-08-17T12:48:38.161Z,100650.69
2022-08-17T12:53:53.952Z,100659.69
2022-08-17T12:58:57.796Z,100650.84
2022-08-17T13:04:00.862Z,100642.47
2022-08-17T13:09:13.170Z,100639.41
2022-08-17T13:14:18.457Z,100641.78
2022-08-17T13:19:29.753Z,100631.63
2022-08-17T13:24:58.158Z,100627.09
2022-08-17T13:30:07.271Z,100624.06
2022-08-17T13:35:44.248Z,100622.56
2022-08-17T13:40:53.241Z,100616.78
2022-08-17T13:46:08.634Z,100625.31
2022-08-17T13:51:26.604Z,100620.13
2022-08-17T13:56:40.550Z,100615.97
2022-08-17T14:01:53.456Z,100608.72
2022-08-17T14:07:16.043Z,100614.41
2022-08-17T14:12:21.761Z,100620.91
2022-08-17T14:17:25.175Z,100616.53
2022-08-17T14:22:33.874Z,100617.53
2022-08-17T14:27:51.786Z,100615.69
2022-08-17T14:32:57.989Z,100604.25
2022-08-17T14:38:02.206Z,100602.66
2022-08-17T14:43:04.553Z,100598.69
2022-08-17T14:48:09.566Z,100605.06
2022-08-17T14:53:15.799Z,100597.16
2022-08-17T14:58:19.347Z,100599.28
2022-08-17T15:03:22.738Z,100603.69
2022-08-17T15:08:25.274Z,100599.59
2022-08-17T15:13:28.169Z,100595.06
2022-08-17T15:18:31.111Z,100591.66
2022-08-17T15:23:33.475Z,100598.13
2022-08-17T15:28:35.785Z,100601.53
2022-08-17T15:33:38.037Z,100599.19
2022-08-17T15:38:40.570Z,100592.38
2022-08-17T15:43:49.901Z,100599.34
2022-08-17T15:48:56.557Z,100592.84
2022-08-17T15:54:18.624Z,100593.84
2022-08-17T15:59:24.541Z,100603.34
2022-08-17T16:04:30.992Z,100599.53
2022-08-17T16:09:34.802Z,100588.88
2022-08-17T16:14:37.190Z,100577.03
2022-08-17T16:19:41.056Z,100573.19
2022-08-17T16:24:56.727Z,100578.75
2022-08-17T16:30:00.798Z,100583.09
2022-08-17T16:35:06.427Z,100584.22
2022-08-17T16:40:09.152Z,100576.09
2022-08-17T16:45:21.089Z,100585.09
2022-08-17T16:50:23.855Z,100585.91
2022-08-17T16:55:29.225Z,100585.44
2022-08-17T17:00:33.871Z,100587.38
2022-08-17T17:05:44.803Z,100588.97
2022-08-17T17:10:55.247Z,100585.13
2022-08-17T17:16:28.747Z,100582.88
2022-08-17T17:21:42.429Z,100578.06
2022-08-17T17:27:17.632Z,100575.88
2022-08-17T17:32:31.794Z,100572.81
2022-08-17T17:37:35.606Z,100576.75
2022-08-17T17:42:40.869Z,100578.88
2022-08-17T17:47:44.217Z,100579.22
2022-08-17T17:53:02.067Z,100586.56
2022-08-17T17:58:29.592Z,100586.09
2022-08-17T18:03:59.091Z,100585.59
2022-08-17T18:09:38.246Z,100593.94
2022-08-17T18:15:03.549Z,100600.47
2022-08-17T18:20:07.175Z,100602.53
2022-08-17T18:25:40.348Z,100594.00
2022-08-17T18:30:42.683Z,100602.97
2022-08-17T18:35:58.705Z,100603.16
2022-08-17T18:41:27.100Z,100605.03
2022-08-17T18:46:35.209Z,100608.69
2022-08-17T18:51:42.648Z,100619.31
2022-08-17T18:56:49.300Z,100627.25
2022-08-17T19:02:32.580Z,100640.47
2022-08-17T19:07:45.154Z,100632.69
2022-08-17T19:13:13.820Z,100631.00
2022-08-17T19:18:21.681Z,100638.94
2022-08-17T19:23:32.109Z,100631.97
2022-08-17T19:28:48.480Z,100636.44
2022-08-17T19:33:52.499Z,100630.38
2022-08-17T19:39:10.943Z,100628.66
2022-08-17T19:44:32.224Z,100625.22
2022-08-17T19:50:07.591Z,100634.94
2022-08-17T19:55:20.264Z,100624.44
2022-08-17T20:00:23.480Z,100626.28
2022-08-17T20:05:30.903Z,100621.94
2022-08-17T20:10:47.360Z,100618.50
2022-08-17T20:15:57.419Z,100626.47
2022-08-17T20:21:01.686Z,100622.97
2022-08-17T20:26:19.742Z,100630.03
2022-08-17T20:31:44.649Z,100623.94
2022-08-17T20:37:07.737Z,100623.94
2022-08-17T20:42:19.938Z,100619.63
2022-08-17T20:47:27.378Z,100627.50
2022-08-17T20:52:35.654Z,100625.75
2022-08-17T20:57:37.965Z,100630.16
2022-08-17T21:02:44.406Z,100620.56
2022-08-17T21:07:58.106Z,100627.56
2022-08-17T21:13:14.049Z,100627.56
2022-08-17T21:18:39.055Z,100626.69
2022-08-17T21:23:53.711Z,100621.47
2022-08-17T21:29:31.211Z,100622.38
2022-08-17T21:34:37.657Z,100632.84
2022-08-17T21:39:41.024Z,100633.75
2022-08-17T21:44:53.277Z,100632.03
2022-08-17T21:50:13.039Z,100636.38
2022-08-17T21:55:24.615Z,100631.16
